sensor_id;sensor_type;location;lat;lon;timestamp;P1;durP1;ratioP1;P2;durP2;ratioP2
39208;SDS011;24929;51.982;4.664;2022-11-18T00:00:01;2.50;;;1.98;;
39208;SDS011;24929;51.982;4.664;2022-11-18T00:02:26;4.38;;;2.17;;
39208;SDS011;24929;51.982;4.664;2022-11-18T00:04:51;7.07;;;2.30;;
39208;SDS011;24929;51.982;4.664;2022-11-18T00:07:16;4.00;;;1.77;;
39208;SDS011;24929;51.982;4.664;2022-11-18T00:09:42;2.67;;;2.05;;
39208;SDS011;24929;51.982;4.664;2022-11-18T00:12:07;1.90;;;1.52;;
39208;SDS011;24929;51.982;4.664;2022-11-18T00:14:51;3.65;;;2.30;;
39208;SDS011;24929;51.982;4.664;2022-11-18T00:17:16;1.95;;;1.73;;
39208;SDS011;24929;51.982;4.664;2022-11-18T00:19:42;3.85;;;1.98;;
39208;SDS011;24929;51.982;4.664;2022-11-18T00:22:08;3.50;;;2.47;;
39208;SDS011;24929;51.982;4.664;2022-11-18T00:24:36;3.55;;;2.33;;
39208;SDS011;24929;51.982;4.664;2022-11-18T00:27:01;2.28;;;2.08;;
39208;SDS011;24929;51.982;4.664;2022-11-18T00:29:27;2.15;;;1.92;;
39208;SDS011;24929;51.982;4.664;2022-11-18T00:31:53;2.42;;;1.80;;
39208;SDS011;24929;51.982;4.664;2022-11-18T00:34:19;2.53;;;2.10;;
39208;SDS011;24929;51.982;4.664;2022-11-18T00:36:45;7.25;;;2.65;;
39208;SDS011;24929;51.982;4.664;2022-11-18T00:39:11;3.65;;;2.53;;
39208;SDS011;24929;51.982;4.664;2022-11-18T00:41:38;3.28;;;2.03;;
39208;SDS011;24929;51.982;4.664;2022-11-18T00:44:22;3.05;;;2.22;;
39208;SDS011;24929;51.982;4.664;2022-11-18T00:46:48;2.30;;;2.05;;
39208;SDS011;24929;51.982;4.664;2022-11-18T00:49:13;4.20;;;2.38;;
39208;SDS011;24929;51.982;4.664;2022-11-18T00:51:38;3.33;;;1.90;;
39208;SDS011;24929;51.982;4.664;2022-11-18T00:54:04;2.85;;;2.40;;
39208;SDS011;24929;51.982;4.664;2022-11-18T00:56:29;1.88;;;1.77;;
39208;SDS011;24929;51.982;4.664;2022-11-18T00:58:55;3.53;;;2.15;;
39208;SDS011;24929;51.982;4.664;2022-11-18T01:01:21;2.85;;;2.30;;
39208;SDS011;24929;51.982;4.664;2022-11-18T01:03:46;5.30;;;2.42;;
39208;SDS011;24929;51.982;4.664;2022-11-18T01:06:11;3.67;;;2.78;;
39208;SDS011;24929;51.982;4.664;2022-11-18T01:08:37;3.42;;;2.75;;
39208;SDS011;24929;51.982;4.664;2022-11-18T01:11:02;3.10;;;2.80;;
39208;SDS011;24929;51.982;4.664;2022-11-18T01:16:31;8.65;;;2.97;;
39208;SDS011;24929;51.982;4.664;2022-11-18T01:18:56;2.20;;;2.00;;
39208;SDS011;24929;51.982;4.664;2022-11-18T01:21:22;3.85;;;2.83;;
39208;SDS011;24929;51.982;4.664;2022-11-18T01:23:47;5.18;;;2.80;;
39208;SDS011;24929;51.982;4.664;2022-11-18T01:26:13;5.93;;;2.55;;
39208;SDS011;24929;51.982;4.664;2022-11-18T01:28:40;3.72;;;2.78;;
39208;SDS011;24929;51.982;4.664;2022-11-18T01:31:06;4.85;;;3.40;;
39208;SDS011;24929;51.982;4.664;2022-11-18T01:33:35;2.60;;;2.20;;
39208;SDS011;24929;51.982;4.664;2022-11-18T01:36:01;2.83;;;2.63;;
39208;SDS011;24929;51.982;4.664;2022-11-18T01:38:27;3.67;;;2.60;;
39208;SDS011;24929;51.982;4.664;2022-11-18T01:40:53;3.78;;;2.45;;
39208;SDS011;24929;51.982;4.664;2022-11-18T01:43:19;2.25;;;1.95;;
39208;SDS011;24929;51.982;4.664;2022-11-18T01:45:46;5.30;;;3.45;;
39208;SDS011;24929;51.982;4.664;2022-11-18T01:48:23;4.28;;;2.85;;
39208;SDS011;24929;51.982;4.664;2022-11-18T01:51:01;3.88;;;3.08;;
39208;SDS011;24929;51.982;4.664;2022-11-18T01:53:31;3.83;;;2.92;;
39208;SDS011;24929;51.982;4.664;2022-11-18T01:55:59;3.17;;;2.80;;
39208;SDS011;24929;51.982;4.664;2022-11-18T01:58:30;5.38;;;3.47;;
39208;SDS011;24929;51.982;4.664;2022-11-18T02:01:00;7.68;;;3.78;;
39208;SDS011;24929;51.982;4.664;2022-11-18T02:03:27;4.80;;;3.60;;
39208;SDS011;24929;51.982;4.664;2022-11-18T02:05:53;5.40;;;4.07;;
39208;SDS011;24929;51.982;4.664;2022-11-18T02:08:19;4.60;;;3.30;;
39208;SDS011;24929;51.982;4.664;2022-11-18T02:10:46;3.05;;;2.75;;
39208;SDS011;24929;51.982;4.664;2022-11-18T02:13:12;4.68;;;3.33;;
39208;SDS011;24929;51.982;4.664;2022-11-18T02:18:36;4.35;;;3.63;;
39208;SDS011;24929;51.982;4.664;2022-11-18T02:29:54;5.45;;;3.58;;
39208;SDS011;24929;51.982;4.664;2022-11-18T02:32:28;4.22;;;3.42;;
39208;SDS011;24929;51.982;4.664;2022-11-18T02:35:08;7.40;;;3.95;;
39208;SDS011;24929;51.982;4.664;2022-11-18T02:37:53;9.32;;;3.80;;
39208;SDS011;24929;51.982;4.664;2022-11-18T02:43:20;4.65;;;3.45;;
39208;SDS011;24929;51.982;4.664;2022-11-18T02:46:00;4.47;;;4.05;;
39208;SDS011;24929;51.982;4.664;2022-11-18T02:48:30;4.18;;;3.63;;
39208;SDS011;24929;51.982;4.664;2022-11-18T02:51:00;4.60;;;3.92;;
39208;SDS011;24929;51.982;4.664;2022-11-18T02:53:28;12.32;;;4.43;;
39208;SDS011;24929;51.982;4.664;2022-11-18T02:55:56;6.25;;;4.50;;
39208;SDS011;24929;51.982;4.664;2022-11-18T02:58:23;4.47;;;3.50;;
39208;SDS011;24929;51.982;4.664;2022-11-18T03:00:53;8.63;;;3.92;;
39208;SDS011;24929;51.982;4.664;2022-11-18T03:03:24;7.65;;;5.28;;
39208;SDS011;24929;51.982;4.664;2022-11-18T03:08:39;9.23;;;5.05;;
39208;SDS011;24929;51.982;4.664;2022-11-18T03:22:47;4.95;;;4.32;;
39208;SDS011;24929;51.982;4.664;2022-11-18T03:25:27;7.63;;;5.22;;
39208;SDS011;24929;51.982;4.664;2022-11-18T03:30:19;5.75;;;4.63;;
39208;SDS011;24929;51.982;4.664;2022-11-18T03:32:49;7.93;;;5.53;;
39208;SDS011;24929;51.982;4.664;2022-11-18T03:35:25;11.25;;;5.20;;
39208;SDS011;24929;51.982;4.664;2022-11-18T03:37:56;5.25;;;4.43;;
39208;SDS011;24929;51.982;4.664;2022-11-18T03:40:29;9.52;;;5.40;;
39208;SDS011;24929;51.982;4.664;2022-11-18T03:43:18;13.30;;;5.95;;
39208;SDS011;24929;51.982;4.664;2022-11-18T03:45:48;7.43;;;5.57;;
39208;SDS011;24929;51.982;4.664;2022-11-18T03:48:17;14.02;;;6.20;;
39208;SDS011;24929;51.982;4.664;2022-11-18T03:50:47;6.72;;;5.20;;
39208;SDS011;24929;51.982;4.664;2022-11-18T03:53:16;7.28;;;6.18;;
39208;SDS011;24929;51.982;4.664;2022-11-18T03:55:46;6.40;;;5.53;;
39208;SDS011;24929;51.982;4.664;2022-11-18T03:58:20;6.10;;;4.95;;
39208;SDS011;24929;51.982;4.664;2022-11-18T04:02:01;6.68;;;5.90;;
39208;SDS011;24929;51.982;4.664;2022-11-18T04:04:06;7.68;;;6.40;;
39208;SDS011;24929;51.982;4.664;2022-11-18T04:06:36;6.43;;;5.10;;
39208;SDS011;24929;51.982;4.664;2022-11-18T04:09:50;6.45;;;5.10;;
39208;SDS011;24929;51.982;4.664;2022-11-18T04:12:04;7.40;;;5.35;;
39208;SDS011;24929;51.982;4.664;2022-11-18T04:14:36;9.30;;;6.03;;
39208;SDS011;24929;51.982;4.664;2022-11-18T04:17:07;9.30;;;5.95;;
39208;SDS011;24929;51.982;4.664;2022-11-18T04:19:37;9.80;;;6.28;;
39208;SDS011;24929;51.982;4.664;2022-11-18T04:22:04;6.07;;;5.47;;
39208;SDS011;24929;51.982;4.664;2022-11-18T04:24:30;6.50;;;5.90;;
39208;SDS011;24929;51.982;4.664;2022-11-18T04:26:55;6.53;;;5.85;;
39208;SDS011;24929;51.982;4.664;2022-11-18T04:29:21;6.78;;;6.07;;
39208;SDS011;24929;51.982;4.664;2022-11-18T04:31:46;7.07;;;6.22;;
39208;SDS011;24929;51.982;4.664;2022-11-18T04:34:11;11.90;;;6.28;;
39208;SDS011;24929;51.982;4.664;2022-11-18T04:36:38;7.95;;;6.20;;
39208;SDS011;24929;51.982;4.664;2022-11-18T04:39:03;10.27;;;6.28;;
39208;SDS011;24929;51.982;4.664;2022-11-18T04:41:29;8.57;;;6.22;;
39208;SDS011;24929;51.982;4.664;2022-11-18T04:44:13;9.55;;;6.93;;
39208;SDS011;24929;51.982;4.664;2022-11-18T04:46:42;7.63;;;5.32;;
39208;SDS011;24929;51.982;4.664;2022-11-18T04:49:09;5.95;;;5.15;;
39208;SDS011;24929;51.982;4.664;2022-11-18T04:51:37;6.45;;;5.15;;
39208;SDS011;24929;51.982;4.664;2022-11-18T04:54:03;10.85;;;6.03;;
39208;SDS011;24929;51.982;4.664;2022-11-18T04:56:29;8.02;;;6.05;;
39208;SDS011;24929;51.982;4.664;2022-11-18T04:58:56;9.95;;;5.82;;
39208;SDS011;24929;51.982;4.664;2022-11-18T05:01:23;6.22;;;5.63;;
39208;SDS011;24929;51.982;4.664;2022-11-18T05:03:48;7.38;;;5.72;;
39208;SDS011;24929;51.982;4.664;2022-11-18T05:06:14;7.60;;;5.50;;
39208;SDS011;24929;51.982;4.664;2022-11-18T05:08:39;14.45;;;6.43;;
39208;SDS011;24929;51.982;4.664;2022-11-18T05:11:05;8.35;;;5.65;;
39208;SDS011;24929;51.982;4.664;2022-11-18T05:13:49;7.63;;;6.28;;
39208;SDS011;24929;51.982;4.664;2022-11-18T05:16:15;10.15;;;6.13;;
39208;SDS011;24929;51.982;4.664;2022-11-18T05:18:41;10.98;;;6.25;;
39208;SDS011;24929;51.982;4.664;2022-11-18T05:21:06;12.00;;;7.32;;
39208;SDS011;24929;51.982;4.664;2022-11-18T05:23:32;7.30;;;5.65;;
39208;SDS011;24929;51.982;4.664;2022-11-18T05:26:01;6.82;;;5.80;;
39208;SDS011;24929;51.982;4.664;2022-11-18T05:28:30;8.73;;;5.45;;
39208;SDS011;24929;51.982;4.664;2022-11-18T05:30:55;7.05;;;5.05;;
39208;SDS011;24929;51.982;4.664;2022-11-18T05:33:20;5.95;;;5.28;;
39208;SDS011;24929;51.982;4.664;2022-11-18T05:35:46;10.23;;;6.38;;
39208;SDS011;24929;51.982;4.664;2022-11-18T05:38:11;8.75;;;5.18;;
39208;SDS011;24929;51.982;4.664;2022-11-18T05:40:36;6.05;;;5.45;;
39208;SDS011;24929;51.982;4.664;2022-11-18T05:43:02;6.22;;;5.32;;
39208;SDS011;24929;51.982;4.664;2022-11-18T05:45:39;7.35;;;5.43;;
39208;SDS011;24929;51.982;4.664;2022-11-18T05:48:05;7.85;;;5.72;;
39208;SDS011;24929;51.982;4.664;2022-11-18T05:50:32;8.25;;;5.20;;
39208;SDS011;24929;51.982;4.664;2022-11-18T05:53:00;12.43;;;5.88;;
39208;SDS011;24929;51.982;4.664;2022-11-18T05:55:27;6.18;;;5.57;;
39208;SDS011;24929;51.982;4.664;2022-11-18T05:57:55;6.20;;;4.78;;
39208;SDS011;24929;51.982;4.664;2022-11-18T06:00:21;8.27;;;5.43;;
39208;SDS011;24929;51.982;4.664;2022-11-18T06:02:46;5.78;;;4.63;;
39208;SDS011;24929;51.982;4.664;2022-11-18T06:05:15;6.95;;;4.85;;
39208;SDS011;24929;51.982;4.664;2022-11-18T06:07:43;20.50;;;5.15;;
39208;SDS011;24929;51.982;4.664;2022-11-18T06:10:11;4.90;;;4.38;;
39208;SDS011;24929;51.982;4.664;2022-11-18T06:12:42;6.70;;;5.90;;
39208;SDS011;24929;51.982;4.664;2022-11-18T06:15:13;6.90;;;5.25;;
39208;SDS011;24929;51.982;4.664;2022-11-18T06:17:43;12.93;;;5.75;;
39208;SDS011;24929;51.982;4.664;2022-11-18T06:20:17;6.38;;;5.32;;
39208;SDS011;24929;51.982;4.664;2022-11-18T06:22:44;6.28;;;4.47;;
39208;SDS011;24929;51.982;4.664;2022-11-18T06:25:10;6.88;;;5.03;;
39208;SDS011;24929;51.982;4.664;2022-11-18T06:27:35;6.07;;;4.78;;
39208;SDS011;24929;51.982;4.664;2022-11-18T06:30:01;8.02;;;5.10;;
39208;SDS011;24929;51.982;4.664;2022-11-18T06:32:26;8.82;;;4.43;;
39208;SDS011;24929;51.982;4.664;2022-11-18T06:34:52;5.80;;;5.15;;
39208;SDS011;24929;51.982;4.664;2022-11-18T06:37:18;8.30;;;4.30;;
39208;SDS011;24929;51.982;4.664;2022-11-18T06:39:44;4.95;;;4.13;;
39208;SDS011;24929;51.982;4.664;2022-11-18T06:42:10;6.78;;;5.22;;
39208;SDS011;24929;51.982;4.664;2022-11-18T06:44:56;8.95;;;5.00;;
39208;SDS011;24929;51.982;4.664;2022-11-18T06:47:21;7.90;;;5.63;;
39208;SDS011;24929;51.982;4.664;2022-11-18T06:49:46;6.47;;;4.32;;
39208;SDS011;24929;51.982;4.664;2022-11-18T06:52:12;9.10;;;5.70;;
39208;SDS011;24929;51.982;4.664;2022-11-18T06:54:37;13.23;;;4.95;;
39208;SDS011;24929;51.982;4.664;2022-11-18T06:57:03;9.18;;;5.43;;
39208;SDS011;24929;51.982;4.664;2022-11-18T07:06:18;7.65;;;6.20;;
39208;SDS011;24929;51.982;4.664;2022-11-18T07:13:11;6.30;;;4.93;;
39208;SDS011;24929;51.982;4.664;2022-11-18T07:16:13;8.73;;;4.65;;
39208;SDS011;24929;51.982;4.664;2022-11-18T07:18:40;6.35;;;4.72;;
39208;SDS011;24929;51.982;4.664;2022-11-18T07:21:09;7.65;;;5.20;;
39208;SDS011;24929;51.982;4.664;2022-11-18T07:23:38;10.48;;;6.15;;
39208;SDS011;24929;51.982;4.664;2022-11-18T07:26:04;12.18;;;5.30;;
39208;SDS011;24929;51.982;4.664;2022-11-18T07:28:31;5.00;;;4.50;;
39208;SDS011;24929;51.982;4.664;2022-11-18T07:33:27;6.60;;;5.00;;
39208;SDS011;24929;51.982;4.664;2022-11-18T07:35:53;7.32;;;4.97;;
39208;SDS011;24929;51.982;4.664;2022-11-18T07:38:20;11.15;;;4.97;;
39208;SDS011;24929;51.982;4.664;2022-11-18T07:40:45;13.73;;;5.60;;
39208;SDS011;24929;51.982;4.664;2022-11-18T07:43:11;6.00;;;5.25;;
39208;SDS011;24929;51.982;4.664;2022-11-18T07:45:37;6.53;;;4.78;;
39208;SDS011;24929;51.982;4.664;2022-11-18T07:48:04;10.70;;;5.15;;
39208;SDS011;24929;51.982;4.664;2022-11-18T07:50:30;8.80;;;4.93;;
39208;SDS011;24929;51.982;4.664;2022-11-18T07:52:56;11.80;;;5.50;;
39208;SDS011;24929;51.982;4.664;2022-11-18T07:55:22;8.32;;;5.25;;
39208;SDS011;24929;51.982;4.664;2022-11-18T07:57:48;5.05;;;4.50;;
39208;SDS011;24929;51.982;4.664;2022-11-18T08:00:14;10.65;;;4.90;;
39208;SDS011;24929;51.982;4.664;2022-11-18T08:02:41;5.78;;;4.20;;
39208;SDS011;24929;51.982;4.664;2022-11-18T08:05:08;5.30;;;4.07;;
39208;SDS011;24929;51.982;4.664;2022-11-18T08:07:34;6.75;;;5.43;;
39208;SDS011;24929;51.982;4.664;2022-11-18T08:10:00;7.13;;;4.50;;
39208;SDS011;24929;51.982;4.664;2022-11-18T08:12:30;6.03;;;4.20;;
39208;SDS011;24929;51.982;4.664;2022-11-18T08:14:58;6.60;;;4.70;;
39208;SDS011;24929;51.982;4.664;2022-11-18T08:17:23;6.07;;;4.65;;
39208;SDS011;24929;51.982;4.664;2022-11-18T08:19:50;12.18;;;5.43;;
39208;SDS011;24929;51.982;4.664;2022-11-18T08:22:16;15.80;;;4.55;;
39208;SDS011;24929;51.982;4.664;2022-11-18T08:24:44;11.50;;;4.72;;
39208;SDS011;24929;51.982;4.664;2022-11-18T08:27:14;17.55;;;5.03;;
39208;SDS011;24929;51.982;4.664;2022-11-18T08:29:41;11.25;;;4.85;;
39208;SDS011;24929;51.982;4.664;2022-11-18T08:32:07;9.70;;;4.57;;
39208;SDS011;24929;51.982;4.664;2022-11-18T08:34:33;10.57;;;5.93;;
39208;SDS011;24929;51.982;4.664;2022-11-18T08:37:00;5.35;;;4.78;;
39208;SDS011;24929;51.982;4.664;2022-11-18T08:39:25;7.90;;;4.78;;
39208;SDS011;24929;51.982;4.664;2022-11-18T08:41:52;6.07;;;4.43;;
39208;SDS011;24929;51.982;4.664;2022-11-18T08:44:17;13.18;;;6.13;;
39208;SDS011;24929;51.982;4.664;2022-11-18T08:46:44;6.10;;;4.63;;
39208;SDS011;24929;51.982;4.664;2022-11-18T08:49:10;8.98;;;5.28;;
39208;SDS011;24929;51.982;4.664;2022-11-18T08:51:36;8.27;;;4.72;;
39208;SDS011;24929;51.982;4.664;2022-11-18T08:54:02;9.65;;;4.78;;
39208;SDS011;24929;51.982;4.664;2022-11-18T08:56:29;5.15;;;4.38;;
39208;SDS011;24929;51.982;4.664;2022-11-18T08:58:55;11.27;;;4.80;;
39208;SDS011;24929;51.982;4.664;2022-11-18T09:01:21;9.45;;;4.82;;
39208;SDS011;24929;51.982;4.664;2022-11-18T09:03:47;6.43;;;4.32;;
39208;SDS011;24929;51.982;4.664;2022-11-18T09:06:15;9.00;;;4.75;;
39208;SDS011;24929;51.982;4.664;2022-11-18T09:08:43;7.13;;;4.72;;
39208;SDS011;24929;51.982;4.664;2022-11-18T09:11:10;7.40;;;4.93;;
39208;SDS011;24929;51.982;4.664;2022-11-18T09:13:40;7.78;;;4.00;;
39208;SDS011;24929;51.982;4.664;2022-11-18T09:16:06;4.13;;;3.50;;
39208;SDS011;24929;51.982;4.664;2022-11-18T09:18:32;6.88;;;3.95;;
39208;SDS011;24929;51.982;4.664;2022-11-18T09:20:59;5.75;;;3.60;;
39208;SDS011;24929;51.982;4.664;2022-11-18T09:23:27;11.00;;;4.65;;
39208;SDS011;24929;51.982;4.664;2022-11-18T09:25:59;4.28;;;3.17;;
39208;SDS011;24929;51.982;4.664;2022-11-18T09:28:27;12.18;;;4.20;;
39208;SDS011;24929;51.982;4.664;2022-11-18T09:30:53;7.43;;;3.78;;
39208;SDS011;24929;51.982;4.664;2022-11-18T09:33:20;6.63;;;2.88;;
39208;SDS011;24929;51.982;4.664;2022-11-18T09:35:46;5.85;;;3.53;;
39208;SDS011;24929;51.982;4.664;2022-11-18T09:38:14;8.52;;;3.92;;
39208;SDS011;24929;51.982;4.664;2022-11-18T09:49:16;4.22;;;3.85;;
39208;SDS011;24929;51.982;4.664;2022-11-18T09:51:47;8.80;;;3.92;;
39208;SDS011;24929;51.982;4.664;2022-11-18T09:54:21;6.10;;;3.35;;
39208;SDS011;24929;51.982;4.664;2022-11-18T09:56:50;5.38;;;3.38;;
39208;SDS011;24929;51.982;4.664;2022-11-18T09:59:18;6.93;;;3.90;;
39208;SDS011;24929;51.982;4.664;2022-11-18T10:01:48;8.25;;;3.85;;
39208;SDS011;24929;51.982;4.664;2022-11-18T10:04:17;10.20;;;4.72;;
39208;SDS011;24929;51.982;4.664;2022-11-18T10:06:45;6.60;;;3.83;;
39208;SDS011;24929;51.982;4.664;2022-11-18T10:12:00;7.20;;;3.65;;
39208;SDS011;24929;51.982;4.664;2022-11-18T10:25:59;10.15;;;4.43;;
39208;SDS011;24929;51.982;4.664;2022-11-18T10:28:27;6.28;;;3.53;;
39208;SDS011;24929;51.982;4.664;2022-11-18T10:31:04;4.43;;;2.75;;
39208;SDS011;24929;51.982;4.664;2022-11-18T10:33:32;6.57;;;4.32;;
39208;SDS011;24929;51.982;4.664;2022-11-18T10:36:09;6.50;;;3.80;;
39208;SDS011;24929;51.982;4.664;2022-11-18T10:38:41;4.03;;;3.45;;
39208;SDS011;24929;51.982;4.664;2022-11-18T10:41:14;11.20;;;3.88;;
39208;SDS011;24929;51.982;4.664;2022-11-18T10:46:35;5.30;;;4.10;;
39208;SDS011;24929;51.982;4.664;2022-11-18T10:51:36;10.20;;;4.27;;
39208;SDS011;24929;51.982;4.664;2022-11-18T10:54:07;5.25;;;4.18;;
39208;SDS011;24929;51.982;4.664;2022-11-18T10:56:52;6.13;;;3.63;;
39208;SDS011;24929;51.982;4.664;2022-11-18T11:01:58;4.72;;;3.83;;
39208;SDS011;24929;51.982;4.664;2022-11-18T11:04:46;8.05;;;4.38;;
39208;SDS011;24929;51.982;4.664;2022-11-18T11:07:32;4.93;;;3.65;;
39208;SDS011;24929;51.982;4.664;2022-11-18T11:12:40;7.68;;;4.13;;
39208;SDS011;24929;51.982;4.664;2022-11-18T11:15:57;6.65;;;4.57;;
39208;SDS011;24929;51.982;4.664;2022-11-18T11:18:01;10.48;;;4.80;;
39208;SDS011;24929;51.982;4.664;2022-11-18T11:20:50;11.23;;;4.60;;
39208;SDS011;24929;51.982;4.664;2022-11-18T11:23:16;7.57;;;4.60;;
39208;SDS011;24929;51.982;4.664;2022-11-18T11:25:46;12.65;;;4.95;;
39208;SDS011;24929;51.982;4.664;2022-11-18T11:34:56;6.85;;;4.60;;
39208;SDS011;24929;51.982;4.664;2022-11-18T11:40:22;8.13;;;5.05;;
39208;SDS011;24929;51.982;4.664;2022-11-18T11:43:16;6.60;;;5.15;;
39208;SDS011;24929;51.982;4.664;2022-11-18T11:46:08;8.55;;;5.75;;
39208;SDS011;24929;51.982;4.664;2022-11-18T11:51:30;9.30;;;6.22;;
39208;SDS011;24929;51.982;4.664;2022-11-18T11:55:24;12.07;;;5.38;;
39208;SDS011;24929;51.982;4.664;2022-11-18T12:00:18;6.90;;;6.20;;
39208;SDS011;24929;51.982;4.664;2022-11-18T12:05:33;11.02;;;6.40;;
39208;SDS011;24929;51.982;4.664;2022-11-18T13:05:43;16.13;;;6.90;;
39208;SDS011;24929;51.982;4.664;2022-11-18T13:08:11;8.80;;;7.32;;
39208;SDS011;24929;51.982;4.664;2022-11-18T13:10:48;11.60;;;7.43;;
39208;SDS011;24929;51.982;4.664;2022-11-18T13:13:37;9.40;;;7.13;;
39208;SDS011;24929;51.982;4.664;2022-11-18T13:25:48;10.55;;;6.45;;
39208;SDS011;24929;51.982;4.664;2022-11-18T13:31:51;6.85;;;5.93;;
39208;SDS011;24929;51.982;4.664;2022-11-18T13:34:24;10.73;;;7.18;;
39208;SDS011;24929;51.982;4.664;2022-11-18T13:36:53;10.02;;;5.78;;
39208;SDS011;24929;51.982;4.664;2022-11-18T13:39:23;6.65;;;5.95;;
39208;SDS011;24929;51.982;4.664;2022-11-18T13:41:57;5.90;;;5.10;;
39208;SDS011;24929;51.982;4.664;2022-11-18T13:44:23;13.68;;;6.35;;
39208;SDS011;24929;51.982;4.664;2022-11-18T13:46:53;8.95;;;5.00;;
39208;SDS011;24929;51.982;4.664;2022-11-18T13:52:22;8.50;;;5.75;;
39208;SDS011;24929;51.982;4.664;2022-11-18T13:54:54;12.95;;;5.32;;
39208;SDS011;24929;51.982;4.664;2022-11-18T13:57:24;11.10;;;6.55;;
39208;SDS011;24929;51.982;4.664;2022-11-18T13:59:52;8.00;;;6.43;;
39208;SDS011;24929;51.982;4.664;2022-11-18T14:02:19;10.32;;;7.07;;
39208;SDS011;24929;51.982;4.664;2022-11-18T14:04:46;7.53;;;5.75;;
39208;SDS011;24929;51.982;4.664;2022-11-18T14:09:54;7.63;;;4.93;;
39208;SDS011;24929;51.982;4.664;2022-11-18T14:12:24;18.35;;;7.35;;
39208;SDS011;24929;51.982;4.664;2022-11-18T14:15:15;8.25;;;6.07;;
39208;SDS011;24929;51.982;4.664;2022-11-18T14:17:50;12.60;;;6.10;;
39208;SDS011;24929;51.982;4.664;2022-11-18T14:20:24;10.93;;;7.22;;
39208;SDS011;24929;51.982;4.664;2022-11-18T14:22:55;16.38;;;6.63;;
39208;SDS011;24929;51.982;4.664;2022-11-18T14:25:25;9.85;;;7.57;;
39208;SDS011;24929;51.982;4.664;2022-11-18T14:27:55;11.38;;;7.50;;
39208;SDS011;24929;51.982;4.664;2022-11-18T14:30:41;12.20;;;8.05;;
39208;SDS011;24929;51.982;4.664;2022-11-18T14:33:20;12.57;;;7.55;;
39208;SDS011;24929;51.982;4.664;2022-11-18T14:35:55;13.90;;;10.15;;
39208;SDS011;24929;51.982;4.664;2022-11-18T14:41:02;14.00;;;9.35;;
39208;SDS011;24929;51.982;4.664;2022-11-18T14:43:30;10.00;;;8.63;;
39208;SDS011;24929;51.982;4.664;2022-11-18T14:45:56;11.82;;;9.80;;
39208;SDS011;24929;51.982;4.664;2022-11-18T14:48:24;11.93;;;8.93;;
39208;SDS011;24929;51.982;4.664;2022-11-18T14:50:51;16.50;;;9.00;;
39208;SDS011;24929;51.982;4.664;2022-11-18T14:53:17;10.05;;;8.90;;
39208;SDS011;24929;51.982;4.664;2022-11-18T14:55:44;13.38;;;9.93;;
39208;SDS011;24929;51.982;4.664;2022-11-18T14:58:15;14.48;;;9.82;;
39208;SDS011;24929;51.982;4.664;2022-11-18T15:00:41;11.57;;;10.18;;
39208;SDS011;24929;51.982;4.664;2022-11-18T15:03:08;18.40;;;10.75;;
39208;SDS011;24929;51.982;4.664;2022-11-18T15:05:34;12.15;;;9.07;;
39208;SDS011;24929;51.982;4.664;2022-11-18T15:07:59;11.57;;;9.60;;
39208;SDS011;24929;51.982;4.664;2022-11-18T15:10:25;12.15;;;9.80;;
39208;SDS011;24929;51.982;4.664;2022-11-18T15:12:50;12.93;;;10.48;;
39208;SDS011;24929;51.982;4.664;2022-11-18T15:15:15;14.93;;;9.75;;
39208;SDS011;24929;51.982;4.664;2022-11-18T15:17:41;19.67;;;9.57;;
39208;SDS011;24929;51.982;4.664;2022-11-18T15:20:09;13.75;;;9.48;;
39208;SDS011;24929;51.982;4.664;2022-11-18T15:22:38;11.05;;;9.57;;
39208;SDS011;24929;51.982;4.664;2022-11-18T15:25:04;15.68;;;10.48;;
39208;SDS011;24929;51.982;4.664;2022-11-18T15:27:29;10.75;;;9.23;;
39208;SDS011;24929;51.982;4.664;2022-11-18T15:29:55;12.30;;;9.55;;
39208;SDS011;24929;51.982;4.664;2022-11-18T15:32:20;14.40;;;8.93;;
39208;SDS011;24929;51.982;4.664;2022-11-18T15:34:45;12.75;;;9.20;;
39208;SDS011;24929;51.982;4.664;2022-11-18T15:37:11;12.73;;;8.85;;
39208;SDS011;24929;51.982;4.664;2022-11-18T15:39:37;12.07;;;8.85;;
39208;SDS011;24929;51.982;4.664;2022-11-18T15:42:02;10.25;;;7.55;;
39208;SDS011;24929;51.982;4.664;2022-11-18T15:44:27;11.82;;;8.52;;
39208;SDS011;24929;51.982;4.664;2022-11-18T15:46:53;11.50;;;8.10;;
39208;SDS011;24929;51.982;4.664;2022-11-18T15:49:19;11.75;;;9.02;;
39208;SDS011;24929;51.982;4.664;2022-11-18T15:51:45;11.57;;;7.90;;
39208;SDS011;24929;51.982;4.664;2022-11-18T15:54:10;9.35;;;8.38;;
39208;SDS011;24929;51.982;4.664;2022-11-18T15:56:36;10.05;;;8.43;;
39208;SDS011;24929;51.982;4.664;2022-11-18T15:59:06;12.25;;;8.07;;
39208;SDS011;24929;51.982;4.664;2022-11-18T16:01:35;9.52;;;8.38;;
39208;SDS011;24929;51.982;4.664;2022-11-18T16:04:02;11.50;;;8.65;;
39208;SDS011;24929;51.982;4.664;2022-11-18T16:06:28;11.65;;;8.75;;
39208;SDS011;24929;51.982;4.664;2022-11-18T16:08:54;11.50;;;8.30;;
39208;SDS011;24929;51.982;4.664;2022-11-18T16:11:20;10.65;;;8.52;;
39208;SDS011;24929;51.982;4.664;2022-11-18T16:14:07;11.80;;;8.75;;
39208;SDS011;24929;51.982;4.664;2022-11-18T16:16:34;9.23;;;8.13;;
39208;SDS011;24929;51.982;4.664;2022-11-18T16:19:04;13.45;;;9.38;;
39208;SDS011;24929;51.982;4.664;2022-11-18T16:21:32;10.73;;;8.93;;
39208;SDS011;24929;51.982;4.664;2022-11-18T16:23:59;10.05;;;9.00;;
39208;SDS011;24929;51.982;4.664;2022-11-18T16:26:26;11.07;;;9.65;;
39208;SDS011;24929;51.982;4.664;2022-11-18T16:28:54;10.90;;;8.70;;
39208;SDS011;24929;51.982;4.664;2022-11-18T16:31:21;13.98;;;9.68;;
39208;SDS011;24929;51.982;4.664;2022-11-18T16:34:05;15.10;;;10.07;;
39208;SDS011;24929;51.982;4.664;2022-11-18T16:36:34;13.35;;;10.95;;
39208;SDS011;24929;51.982;4.664;2022-11-18T16:39:03;10.40;;;9.40;;
39208;SDS011;24929;51.982;4.664;2022-11-18T16:41:31;11.23;;;10.07;;
39208;SDS011;24929;51.982;4.664;2022-11-18T16:43:56;10.50;;;9.45;;
39208;SDS011;24929;51.982;4.664;2022-11-18T16:46:27;11.68;;;9.18;;
39208;SDS011;24929;51.982;4.664;2022-11-18T16:48:54;11.27;;;9.60;;
39208;SDS011;24929;51.982;4.664;2022-11-18T16:51:21;10.32;;;8.85;;
39208;SDS011;24929;51.982;4.664;2022-11-18T16:56:23;13.95;;;9.57;;
39208;SDS011;24929;51.982;4.664;2022-11-18T16:58:54;12.77;;;9.25;;
39208;SDS011;24929;51.982;4.664;2022-11-18T17:01:27;14.05;;;9.73;;
39208;SDS011;24929;51.982;4.664;2022-11-18T17:03:53;12.32;;;9.32;;
39208;SDS011;24929;51.982;4.664;2022-11-18T17:06:19;14.23;;;10.55;;
39208;SDS011;24929;51.982;4.664;2022-11-18T17:08:45;13.73;;;10.90;;
39208;SDS011;24929;51.982;4.664;2022-11-18T17:11:11;14.68;;;11.27;;
39208;SDS011;24929;51.982;4.664;2022-11-18T17:13:37;13.00;;;10.98;;
39208;SDS011;24929;51.982;4.664;2022-11-18T17:16:36;14.25;;;11.30;;
39208;SDS011;24929;51.982;4.664;2022-11-18T17:18:55;12.52;;;10.57;;
39208;SDS011;24929;51.982;4.664;2022-11-18T17:21:22;14.82;;;11.32;;
39208;SDS011;24929;51.982;4.664;2022-11-18T17:23:49;17.92;;;11.35;;
39208;SDS011;24929;51.982;4.664;2022-11-18T17:26:16;13.98;;;10.45;;
39208;SDS011;24929;51.982;4.664;2022-11-18T17:28:44;13.13;;;11.30;;
39208;SDS011;24929;51.982;4.664;2022-11-18T17:31:10;14.80;;;11.70;;
39208;SDS011;24929;51.982;4.664;2022-11-18T17:33:40;13.13;;;11.50;;
39208;SDS011;24929;51.982;4.664;2022-11-18T17:36:07;13.45;;;11.15;;
39208;SDS011;24929;51.982;4.664;2022-11-18T17:38:35;15.52;;;12.13;;
39208;SDS011;24929;51.982;4.664;2022-11-18T17:41:02;14.63;;;11.52;;
39208;SDS011;24929;51.982;4.664;2022-11-18T17:43:28;13.07;;;11.38;;
39208;SDS011;24929;51.982;4.664;2022-11-18T17:45:54;14.63;;;12.40;;
39208;SDS011;24929;51.982;4.664;2022-11-18T17:48:21;14.52;;;11.32;;
39208;SDS011;24929;51.982;4.664;2022-11-18T17:50:48;13.48;;;11.65;;
39208;SDS011;24929;51.982;4.664;2022-11-18T17:53:14;15.20;;;13.48;;